Time;durP1;ratioP1;P1;durP2;ratioP2;P2;SDS_P1;SDS_P2;PMS_P1;PMS_P2;Temp;Humidity;BMP_temperature;BMP_pressure;BME280_temperature;BME280_humidity;BME280_pressure;Samples;Min_cycle;Max_cycle;Signal;HPM_P1;HPM_P2
2021/08/01 00:01:24;;;;;;;;;3.75;3.75;;;;;19.31;54.62;101040.69;4936878;28;45297;-77
2021/08/01 07:59:28;;;;;;;;;3.00;3.00;;;;;20.02;56.88;101102.78;5152727;23;45716;-81
2021/08/01 08:01:53;;;;;;;;;5.25;3.75;;;;;20.05;57.13;101107.88;4938235;28;45373;-81
2021/08/01 08:04:18;;;;;;;;;0.75;0.75;;;;;20.11;57.20;101111.97;4923385;28;45381;-81
2021/08/01 08:06:44;;;;;;;;;2.00;2.00;;;;;20.11;56.21;101107.50;4925752;28;45228;-81
2021/08/01 08:09:09;;;;;;;;;2.50;1.00;;;;;20.05;55.40;101112.38;4942084;28;45227;-80
2021/08/01 08:11:34;;;;;;;;;2.00;2.00;;;;;20.02;56.65;101114.31;4934595;28;45384;-77
2021/08/01 08:14:00;;;;;;;;;2.25;2.25;;;;;20.05;56.15;101115.06;4941696;28;45192;-76
2021/08/01 08:16:25;;;;;;;;;2.50;2.00;;;;;20.04;56.24;101113.34;4928685;28;46513;-76
2021/08/01 08:18:50;;;;;;;;;1.00;1.00;;;;;20.07;56.31;101114.00;4922513;28;45216;-76
2021/08/01 08:21:17;;;;;;;;;3.00;3.00;;;;;20.07;55.58;101111.31;4928784;28;45172;-77
2021/08/01 08:23:43;;;;;;;;;3.00;1.75;;;;;20.06;56.00;101116.75;4938908;28;45370;-76
2021/08/01 08:26:08;;;;;;;;;3.75;3.75;;;;;20.02;55.78;101124.13;4936818;28;46944;-76
2021/08/01 08:28:33;;;;;;;;;3.50;2.50;;;;;19.94;56.19;101119.28;4938145;28;45658;-76
2021/08/01 08:30:59;;;;;;;;;4.50;2.50;;;;;19.91;56.49;101124.81;4920635;28;45533;-77
2021/08/01 08:33:25;;;;;;;;;2.00;2.00;;;;;19.88;56.58;101119.69;4933584;28;46250;-76
2021/08/01 08:35:51;;;;;;;;;4.00;2.25;;;;;19.87;56.56;101118.00;4937113;28;46273;-77
2021/08/01 08:38:16;;;;;;;;;2.50;2.50;;;;;19.91;56.79;101116.81;4933596;28;46736;-76
2021/08/01 08:40:42;;;;;;;;;2.25;2.25;;;;;19.92;57.32;101118.53;4936897;28;45704;-77
2021/08/01 08:43:08;;;;;;;;;2.75;2.75;;;;;19.92;57.21;101123.88;4935729;28;45525;-76
2021/08/01 08:45:34;;;;;;;;;1.50;1.50;;;;;19.97;56.91;101123.56;4937912;28;46838;-77
2021/08/01 08:47:59;;;;;;;;;4.25;4.00;;;;;20.02;57.08;101127.66;4938146;28;45472;-77
2021/08/01 08:50:25;;;;;;;;;3.00;2.00;;;;;20.05;56.85;101131.06;4925596;28;45469;-77
2021/08/01 08:52:59;;;;;;;;;2.75;2.50;;;;;19.99;55.78;101127.84;4935493;28;45406;-77
2021/08/01 08:55:28;;;;;;;;;2.50;2.50;;;;;19.95;56.39;101118.31;4937714;28;45335;-76
2021/08/01 08:58:00;;;;;;;;;3.00;3.00;;;;;19.95;55.85;101120.16;4918649;28;45273;-78
2021/08/01 09:00:27;;;;;;;;;4.00;4.00;;;;;19.94;56.12;101121.97;4916081;28;45552;-76
2021/08/01 09:02:52;;;;;;;;;3.00;2.75;;;;;19.92;56.04;101123.03;4939619;28;45449;-76
2021/08/01 09:05:17;;;;;;;;;3.25;3.00;;;;;19.93;56.33;101119.41;4923530;28;47930;-76
2021/08/01 09:07:43;;;;;;;;;5.00;3.25;;;;;19.99;56.19;101121.66;4927354;28;45244;-76
2021/08/01 09:10:10;;;;;;;;;3.25;3.25;;;;;20.06;56.28;101127.41;4930483;28;45260;-76
2021/08/01 09:12:54;;;;;;;;;5.25;2.50;;;;;20.03;55.88;101109.81;4930492;28;45541;-76
2021/08/01 09:15:24;;;;;;;;;2.50;2.00;;;;;20.16;56.44;101120.53;4922054;28;47200;-76
2021/08/01 09:17:53;;;;;;;;;4.75;2.50;;;;;20.21;56.30;101118.41;4922016;28;45156;-76
2021/08/01 09:20:20;;;;;;;;;3.00;3.00;;;;;20.30;56.21;101121.38;4920442;28;45486;-76
2021/08/01 09:23:00;;;;;;;;;4.00;4.00;;;;;20.41;56.06;101120.66;4921880;28;45540;-76
2021/08/01 09:25:30;;;;;;;;;1.00;1.00;;;;;20.52;55.47;101119.94;4904648;28;47576;-75
2021/08/01 09:28:21;;;;;;;;;4.50;3.00;;;;;20.56;55.10;101116.09;4904929;28;45336;-76
2021/08/01 09:31:06;;;;;;;;;1.50;1.50;;;;;20.64;55.11;101124.38;4924742;28;45382;-76
2021/08/01 09:33:39;;;;;;;;;3.00;3.00;;;;;20.71;55.26;101123.97;4936902;28;45217;-76
2021/08/01 09:36:18;;;;;;;;;2.00;2.00;;;;;20.76;54.98;101122.69;4930383;28;48498;-75
2021/08/01 09:38:58;;;;;;;;;3.25;2.00;;;;;20.88;54.74;101128.13;4931775;28;45413;-76
2021/08/01 09:41:35;;;;;;;;;5.00;3.00;;;;;20.91;53.14;101123.41;4935217;28;45521;-76
2021/08/01 09:44:04;;;;;;;;;4.00;3.00;;;;;20.96;53.41;101132.94;4936794;28;46215;-76
2021/08/01 09:46:42;;;;;;;;;2.50;2.50;;;;;20.98;53.66;101125.66;4935771;28;45527;-76
2021/08/01 09:49:13;;;;;;;;;2.00;2.00;;;;;21.01;51.40;101125.47;4943641;28;45599;-77
2021/08/01 09:51:40;;;;;;;;;2.00;2.00;;;;;20.98;52.72;101114.97;4943909;28;45268;-76
2021/08/01 09:54:06;;;;;;;;;2.00;2.00;;;;;20.98;51.87;101117.63;4927539;28;47322;-76
2021/08/01 09:56:31;;;;;;;;;3.75;3.00;;;;;20.99;52.16;101114.00;4938969;28;45390;-76
2021/08/01 09:58:57;;;;;;;;;1.00;1.00;;;;;21.04;52.06;101114.53;4928178;28;45378;-76
2021/08/01 10:01:22;;;;;;;;;2.50;2.00;;;;;21.07;52.52;101125.00;4923592;28;45456;-76
2021/08/01 10:03:50;;;;;;;;;2.25;2.25;;;;;21.12;52.17;101117.53;4935278;28;45331;-76
2021/08/01 10:06:22;;;;;;;;;2.00;2.00;;;;;21.16;52.34;101109.28;4927745;28;45658;-76
2021/08/01 10:08:48;;;;;;;;;3.75;2.00;;;;;21.19;51.74;101117.06;4940552;28;45551;-76
2021/08/01 10:11:19;;;;;;;;;1.25;1.25;;;;;21.20;50.83;101108.94;4941038;28;45294;-76
2021/08/01 10:13:47;;;;;;;;;2.75;1.50;;;;;21.21;50.72;101109.81;4932386;28;46405;-76
2021/08/01 10:16:13;;;;;;;;;4.75;2.00;;;;;21.18;49.60;101099.34;4943731;28;45544;-76
2021/08/01 10:18:41;;;;;;;;;2.25;2.00;;;;;21.12;51.20;101106.84;4929965;28;45332;-76
2021/08/01 10:21:07;;;;;;;;;2.00;2.00;;;;;21.11;50.67;101110.47;4911514;28;45401;-76
2021/08/01 10:23:36;;;;;;;;;4.00;2.75;;;;;21.09;50.59;101099.03;4929738;28;45527;-76
2021/08/01 10:26:05;;;;;;;;;1.00;1.00;;;;;21.09;51.36;101101.69;4940406;28;46824;-76
2021/08/01 10:28:32;;;;;;;;;2.00;2.00;;;;;21.06;49.75;101096.59;4943338;28;45520;-76
2021/08/01 10:31:10;;;;;;;;;3.00;2.00;;;;;21.00;50.04;101097.00;4942059;28;45508;-75
2021/08/01 10:33:53;;;;;;;;;1.75;1.25;;;;;21.02;49.89;101095.97;4930565;28;45379;-76
2021/08/01 10:36:26;;;;;;;;;1.00;1.00;;;;;21.05;50.43;101102.03;4913705;28;47026;-76
2021/08/01 10:38:53;;;;;;;;;2.00;2.00;;;;;21.09;51.35;101095.50;4931294;28;45354;-76
2021/08/01 10:41:21;;;;;;;;;2.50;2.00;;;;;21.12;49.94;101105.97;4925755;28;45461;-76
2021/08/01 10:43:48;;;;;;;;;4.00;2.00;;;;;21.06;49.75;101093.94;4925552;28;45527;-76
2021/08/01 10:46:18;;;;;;;;;2.00;2.00;;;;;21.03;50.51;101091.47;4921756;28;47441;-76
2021/08/01 10:48:43;;;;;;;;;2.50;2.50;;;;;21.05;50.33;101100.22;4926882;28;46711;-76
2021/08/01 10:51:09;;;;;;;;;2.75;2.75;;;;;21.08;50.38;101100.00;4924444;28;45228;-76
2021/08/01 10:53:34;;;;;;;;;1.50;1.50;;;;;21.11;50.15;101089.06;4924082;28;45538;-76
2021/08/01 10:56:05;;;;;;;;;1.00;1.00;;;;;21.10;49.14;101092.72;4923827;28;46256;-76
2021/08/01 10:58:34;;;;;;;;;1.00;1.00;;;;;21.04;48.39;101093.16;4922273;28;45995;-76
2021/08/01 11:01:03;;;;;;;;;2.00;2.00;;;;;20.98;48.81;101093.59;4923978;28;45335;-76
2021/08/01 11:03:30;;;;;;;;;1.50;1.00;;;;;20.94;49.89;101092.09;4924364;28;45516;-76
2021/08/01 11:05:57;;;;;;;;;2.00;2.00;;;;;20.94;50.36;101076.09;4940628;28;45446;-76
2021/08/01 11:08:22;;;;;;;;;1.00;1.00;;;;;20.97;48.99;101082.03;4918525;28;45512;-76
2021/08/01 11:11:10;;;;;;;;;1.00;1.00;;;;;21.01;49.25;101083.53;4940761;28;45416;-76
2021/08/01 11:13:42;;;;;;;;;1.00;1.00;;;;;21.07;49.66;101076.91;4923307;28;45420;-76
2021/08/01 11:16:09;;;;;;;;;3.00;1.00;;;;;21.12;49.94;101079.25;4930530;28;45644;-76
2021/08/01 11:18:40;;;;;;;;;2.00;1.75;;;;;21.18;49.18;101078.81;4922886;28;45533;-76
2021/08/01 11:21:06;;;;;;;;;2.25;2.25;;;;;21.21;49.33;101080.41;4923895;28;45366;-76
2021/08/01 11:23:44;;;;;;;;;1.00;1.00;;;;;21.27;48.54;101074.59;4922889;28;45421;-76
2021/08/01 11:26:11;;;;;;;;;1.00;1.00;;;;;21.31;48.77;101068.06;4923264;28;45418;-76
2021/08/01 11:28:38;;;;;;;;;1.00;1.00;;;;;21.38;49.51;101067.63;4923059;28;45389;-76
2021/08/01 11:31:04;;;;;;;;;0.00;0.00;;;;;21.41;49.01;101067.41;4923419;28;45284;-76
2021/08/01 11:33:40;;;;;;;;;2.75;1.00;;;;;21.42;48.66;101069.09;4934927;28;45276;-76
2021/08/01 11:36:12;;;;;;;;;0.25;0.25;;;;;21.44;48.65;101067.16;4922875;28;45357;-76
2021/08/01 11:38:39;;;;;;;;;0.75;0.75;;;;;21.48;47.75;101058.78;4923204;28;45419;-76
2021/08/01 11:41:05;;;;;;;;;1.00;1.00;;;;;21.49;48.72;101054.28;4923454;28;45921;-76
2021/08/01 11:43:32;;;;;;;;;1.25;1.00;;;;;21.50;48.41;101058.69;4923168;28;45749;-75
2021/08/01 11:45:58;;;;;;;;;1.00;1.00;;;;;21.53;48.22;101055.75;4923264;28;46449;-76
2021/08/01 11:48:24;;;;;;;;;0.00;0.00;;;;;21.56;48.18;101060.03;4905914;28;45312;-75
2021/08/01 11:50:49;;;;;;;;;0.00;0.00;;;;;21.58;45.59;101066.97;4941637;28;45431;-76
2021/08/01 11:53:15;;;;;;;;;0.00;0.00;;;;;21.58;44.99;101066.13;4939740;28;45246;-76
2021/08/01 11:55:46;;;;;;;;;0.00;0.00;;;;;21.53;44.79;101058.44;4942013;28;45342;-76
2021/08/01 11:58:11;;;;;;;;;0.00;0.00;;;;;21.52;46.58;101054.06;4942226;28;45425;-76
2021/08/01 12:00:37;;;;;;;;;0.00;0.00;;;;;21.53;45.84;101054.94;4933402;28;45236;-76
2021/08/01 12:03:04;;;;;;;;;1.25;0.00;;;;;21.53;46.91;101049.59;4931247;28;45404;-76
2021/08/01 12:05:43;;;;;;;;;0.00;0.00;;;;;21.59;47.65;101049.97;4916167;28;48114;-76
2021/08/01 12:08:27;;;;;;;;;1.00;1.00;;;;;21.64;47.03;101057.63;4938990;28;45520;-76
2021/08/01 12:11:05;;;;;;;;;0.75;0.75;;;;;21.70;47.17;101051.81;4931540;28;45669;-76
2021/08/01 12:13:30;;;;;;;;;1.00;1.00;;;;;21.74;46.29;101049.75;4937930;28;45608;-76
2021/08/01 12:15:56;;;;;;;;;0.50;0.50;;;;;21.77;45.73;101052.22;4911535;28;48060;-76
2021/08/01 12:18:28;;;;;;;;;0.25;0.25;;;;;21.84;45.99;101051.72;4909496;28;45260;-76
2021/08/01 12:20:54;;;;;;;;;0.00;0.00;;;;;21.90;46.65;101051.31;4929363;28;45267;-76
2021/08/01 12:23:38;;;;;;;;;1.75;1.75;;;;;21.96;47.17;101053.50;4909992;28;46087;-76
2021/08/01 12:26:03;;;;;;;;;0.00;0.00;;;;;21.97;46.68;101047.19;4923928;28;46288;-76
2021/08/01 12:28:39;;;;;;;;;0.00;0.00;;;;;22.01;45.22;101050.47;4922566;28;45455;-76
2021/08/01 12:31:04;;;;;;;;;1.00;1.00;;;;;22.06;44.49;101050.09;4922984;28;45256;-76
2021/08/01 12:33:30;;;;;;;;;0.00;0.00;;;;;22.11;43.58;101047.94;4923124;28;45264;-76
2021/08/01 12:35:55;;;;;;;;;1.00;1.00;;;;;22.20;44.14;101054.41;4924458;28;45255;-76
2021/08/01 12:38:25;;;;;;;;;2.75;1.00;;;;;22.25;44.59;101061.09;4926475;28;45441;-76
2021/08/01 12:40:51;;;;;;;;;0.50;0.50;;;;;22.31;44.77;101061.59;4927368;28;45696;-76
2021/08/01 12:43:24;;;;;;;;;1.00;1.00;;;;;22.32;45.70;101055.28;4921492;28;45314;-76
2021/08/01 12:45:51;;;;;;;;;1.00;1.00;;;;;22.37;45.41;101055.75;4930661;28;45393;-76
2021/08/01 12:48:19;;;;;;;;;1.00;1.00;;;;;22.40;45.97;101052.81;4943778;28;45664;-76
2021/08/01 12:50:48;;;;;;;;;2.00;1.00;;;;;22.41;45.58;101051.88;4939491;28;45179;-76
2021/08/01 12:53:16;;;;;;;;;0.50;0.50;;;;;22.46;45.52;101044.31;4922397;28;45418;-76
2021/08/01 12:55:42;;;;;;;;;0.75;0.75;;;;;22.54;45.47;101050.88;4923663;28;45537;-76
2021/08/01 12:58:11;;;;;;;;;1.00;1.00;;;;;22.56;44.75;101040.91;4930627;28;45576;-76
2021/08/01 13:01:00;;;;;;;;;0.75;0.75;;;;;22.60;44.60;101053.06;4938464;28;45406;-76
2021/08/01 13:03:34;;;;;;;;;2.00;1.00;;;;;22.61;44.81;101052.09;4909156;28;47078;-76
2021/08/01 13:05:59;;;;;;;;;0.00;0.00;;;;;22.59;45.48;101051.38;4934495;28;47018;-76
2021/08/01 13:08:46;;;;;;;;;1.00;1.00;;;;;22.54;45.85;101048.22;4921933;28;45362;-76
2021/08/01 13:11:13;;;;;;;;;2.00;2.00;;;;;22.48;45.81;101039.69;4927465;28;45366;-76
2021/08/01 13:14:08;;;;;;;;;1.00;1.00;;;;;22.42;46.10;101040.16;4930210;28;45603;-76
2021/08/01 13:16:54;;;;;;;;;1.00;1.00;;;;;22.39;43.58;101040.44;4911203;28;45515;-76
2021/08/01 13:19:26;;;;;;;;;0.50;0.50;;;;;22.41;45.40;101041.16;4922441;28;45251;-76
2021/08/01 13:22:11;;;;;;;;;3.00;1.00;;;;;22.49;45.09;101040.56;4923403;28;45355;-76
2021/08/01 13:24:39;;;;;;;;;0.50;0.50;;;;;22.56;45.17;101051.63;4924122;28;45488;-76
2021/08/01 13:27:07;;;;;;;;;1.50;1.50;;;;;22.59;44.16;101046.03;4933362;28;46559;-79
2021/08/01 13:29:33;;;;;;;;;1.00;0.25;;;;;22.62;45.19;101051.13;4923422;28;45491;-79
2021/08/01 13:32:18;;;;;;;;;0.25;0.25;;;;;22.65;45.76;101050.88;4921975;28;45169;-77
2021/08/01 13:34:46;;;;;;;;;1.75;1.75;;;;;22.67;45.41;101048.91;4904292;28;48002;-77
2021/08/01 13:37:26;;;;;;;;;2.00;2.00;;;;;22.68;44.63;101045.28;4929040;28;46357;-78
2021/08/01 13:40:00;;;;;;;;;2.00;2.00;;;;;22.69;44.86;101047.00;4924234;28;45348;-77
2021/08/01 13:42:37;;;;;;;;;1.00;1.00;;;;;22.69;45.29;101047.00;4922982;28;46029;-77
2021/08/01 13:45:06;;;;;;;;;1.00;1.00;;;;;22.68;44.47;101045.28;4922417;28;46992;-76
2021/08/01 13:47:33;;;;;;;;;1.50;1.50;;;;;22.67;44.83;101043.56;4941887;28;45338;-77
2021/08/01 13:49:59;;;;;;;;;2.25;1.00;;;;;22.69;44.65;101036.28;4924910;28;45472;-78
2021/08/01 13:52:26;;;;;;;;;1.00;1.00;;;;;22.68;44.69;101037.25;4924466;28;45320;-78
2021/08/01 13:54:56;;;;;;;;;1.00;1.00;;;;;22.70;45.26;101038.00;4924761;28;45632;-77
2021/08/01 13:57:23;;;;;;;;;0.25;0.00;;;;;22.72;44.88;101045.91;4916850;28;48345;-77
2021/08/01 13:59:49;;;;;;;;;2.00;1.00;;;;;22.72;44.07;101035.19;4923041;28;45213;-77
2021/08/01 14:02:15;;;;;;;;;0.00;0.00;;;;;22.73;44.54;101044.94;4932079;28;45390;-78
2021/08/01 14:04:40;;;;;;;;;0.00;0.00;;;;;22.78;44.13;101048.09;4924749;28;45470;-77
2021/08/01 14:07:06;;;;;;;;;2.75;1.00;;;;;22.82;44.73;101036.16;4923904;28;46747;-76
2021/08/01 14:09:33;;;;;;;;;0.00;0.00;;;;;22.88;45.32;101034.81;4924659;28;45157;-77
2021/08/01 14:12:00;;;;;;;;;0.50;0.50;;;;;22.97;45.16;101032.34;4912716;28;45475;-77
2021/08/01 14:14:25;;;;;;;;;1.00;0.75;;;;;23.04;44.57;101030.84;4917905;28;45997;-78
2021/08/01 14:16:51;;;;;;;;;2.75;1.50;;;;;23.10;44.28;101030.38;4924271;28;45438;-78
2021/08/01 14:19:17;;;;;;;;;3.00;1.25;;;;;23.18;44.53;101031.56;4924781;28;45334;-78
2021/08/01 14:21:42;;;;;;;;;1.00;1.00;;;;;23.23;44.26;101024.84;4942155;28;45358;-79
2021/08/01 14:24:09;;;;;;;;;0.50;0.50;;;;;23.32;44.46;101030.41;4943818;28;45303;-77
2021/08/01 14:26:37;;;;;;;;;0.00;0.00;;;;;23.37;43.74;101029.06;4929673;28;46349;-78
2021/08/01 14:29:03;;;;;;;;;1.00;1.00;;;;;23.44;44.88;101025.84;4906166;28;46066;-78
2021/08/01 14:31:30;;;;;;;;;1.00;1.00;;;;;23.52;43.79;101030.59;4924767;28;45300;-78
2021/08/01 14:33:59;;;;;;;;;0.00;0.00;;;;;23.57;44.11;101023.03;4942264;28;45516;-80
2021/08/01 14:36:28;;;;;;;;;1.75;1.00;;;;;23.60;43.89;101020.94;4935912;28;46093;-80
2021/08/01 14:38:54;;;;;;;;;1.00;1.00;;;;;23.60;43.57;101029.00;4943452;28;45213;-80
2021/08/01 14:41:21;;;;;;;;;2.00;0.00;;;;;23.58;42.54;101024.75;4942895;28;45315;-80
2021/08/01 14:43:47;;;;;;;;;1.25;1.00;;;;;23.53;43.18;101019.75;4921084;28;46344;-80
2021/08/01 14:46:15;;;;;;;;;0.00;0.00;;;;;23.53;43.48;101025.13;4932774;28;45430;-80
2021/08/01 14:48:45;;;;;;;;;0.00;0.00;;;;;23.54;42.84;101028.63;4922676;28;45190;-79
2021/08/01 14:52:58;;;;;;;;;0.00;0.00;;;;;23.54;43.10;101032.19;4911161;28;45259;-80
2021/08/01 14:53:56;;;;;;;;;1.00;1.00;;;;;23.52;42.35;101020.72;4941523;28;45306;-80
2021/08/01 14:56:24;;;;;;;;;1.00;1.00;;;;;23.51;42.77;101016.34;4920845;28;48003;-82
2021/08/01 14:59:00;;;;;;;;;1.00;0.75;;;;;23.54;42.55;101026.81;4919552;28;45637;-82
2021/08/01 15:01:32;;;;;;;;;0.00;0.00;;;;;23.56;42.61;101021.31;4940024;28;45203;-82
2021/08/01 15:04:29;;;;;;;;;1.00;1.00;;;;;23.58;43.11;101020.19;4922183;28;47509;-81
2021/08/01 15:07:14;;;;;;;;;1.00;1.00;;;;;23.61;42.19;101016.41;4911716;28;45729;-82
2021/08/01 15:10:06;;;;;;;;;0.00;0.00;;;;;23.62;42.46;101015.44;4923149;28;46297;-81
2021/08/01 15:12:44;;;;;;;;;1.50;1.50;;;;;23.65;42.71;101017.88;4923825;28;45334;-80
2021/08/01 15:15:12;;;;;;;;;0.00;0.00;;;;;23.68;43.05;101022.94;4922792;28;45161;-77
2021/08/01 15:17:38;;;;;;;;;1.00;1.00;;;;;23.70;42.61;101023.69;4934334;28;48363;-78
2021/08/01 15:20:07;;;;;;;;;0.75;0.75;;;;;23.74;41.82;101023.41;4906419;28;45872;-77
2021/08/01 15:23:03;;;;;;;;;1.00;1.00;;;;;23.74;42.77;101020.72;4923688;28;45505;-77
2021/08/01 15:25:33;;;;;;;;;1.00;1.00;;;;;23.75;43.25;101017.06;4916428;28;46328;-77
2021/08/01 15:27:59;;;;;;;;;1.50;1.50;;;;;23.77;42.54;101023.16;4912179;28;47242;-77
2021/08/01 15:30:27;;;;;;;;;1.00;1.00;;;;;23.76;42.94;101016.94;4925512;28;45528;-77
2021/08/01 15:32:54;;;;;;;;;1.25;1.25;;;;;23.74;42.66;101026.97;4942804;28;45267;-82
2021/08/01 15:35:28;;;;;;;;;2.00;1.00;;;;;23.71;42.67;101020.03;4925724;28;45523;-80
2021/08/01 15:37:55;;;;;;;;;0.50;0.50;;;;;23.72;41.91;101023.56;4935926;28;45539;-80
2021/08/01 15:40:24;;;;;;;;;1.00;1.00;;;;;23.67;42.29;101021.28;4942506;28;45521;-80
2021/08/01 15:42:52;;;;;;;;;2.00;2.00;;;;;23.67;42.02;101026.63;4939639;28;45302;-79
2021/08/01 15:45:22;;;;;;;;;1.00;1.00;;;;;23.63;42.26;101021.66;4922794;28;45581;-79
2021/08/01 15:47:49;;;;;;;;;1.00;1.00;;;;;23.64;42.91;101024.19;4922975;28;45326;-79
2021/08/01 15:50:14;;;;;;;;;2.00;1.00;;;;;23.66;43.14;101016.00;4923146;28;45343;-78
2021/08/01 15:53:06;;;;;;;;;0.50;0.50;;;;;23.68;41.83;101025.63;4916352;28;45324;-80
2021/08/01 15:55:46;;;;;;;;;2.00;1.00;;;;;23.71;41.95;101024.53;4930725;28;45631;-79
2021/08/01 15:58:46;;;;;;;;;0.75;0.75;;;;;23.68;42.71;101022.13;4922726;28;46535;-79
2021/08/01 16:01:38;;;;;;;;;1.00;1.00;;;;;23.66;42.55;101016.88;4922709;28;45227;-79
2021/08/01 16:04:22;;;;;;;;;1.50;1.50;;;;;23.64;41.94;101024.19;4933484;28;45255;-79
2021/08/01 16:06:48;;;;;;;;;1.75;1.00;;;;;23.57;42.51;101015.84;4937321;28;45759;-79
2021/08/01 16:09:21;;;;;;;;;1.25;1.00;;;;;23.53;42.01;101017.09;4935405;28;45402;-79
2021/08/01 16:11:56;;;;;;;;;0.00;0.00;;;;;23.50;41.49;101006.59;4926133;28;45582;-79
2021/08/01 16:14:23;;;;;;;;;3.00;1.00;;;;;23.49;42.77;101004.88;4922571;28;45319;-79
2021/08/01 16:17:02;;;;;;;;;1.00;1.00;;;;;23.47;42.85;101005.00;4924515;28;45287;-79
2021/08/01 16:19:29;;;;;;;;;0.25;0.25;;;;;23.48;42.58;101009.41;4921289;28;48260;-79
2021/08/01 16:22:00;;;;;;;;;1.00;1.00;;;;;23.46;42.12;101010.47;4922351;28;45394;-79
2021/08/01 16:24:28;;;;;;;;;1.50;0.25;;;;;23.42;42.15;101012.59;4922721;28;45247;-76
2021/08/01 16:26:54;;;;;;;;;1.25;1.25;;;;;23.41;41.14;101015.41;4925860;28;45337;-77
2021/08/01 16:29:21;;;;;;;;;3.25;2.00;;;;;23.35;41.45;101014.94;4935548;28;45388;-77
2021/08/01 16:31:47;;;;;;;;;3.00;1.75;;;;;23.36;41.84;101013.94;4932741;28;45311;-77
2021/08/01 16:34:16;;;;;;;;;2.00;1.25;;;;;23.38;41.46;101016.50;4921884;28;45641;-77
2021/08/01 16:36:45;;;;;;;;;0.75;0.75;;;;;23.38;42.13;101019.19;4932538;28;45267;-76
2021/08/01 16:39:12;;;;;;;;;1.75;1.00;;;;;23.41;42.04;101018.91;4905079;28;47126;-76
2021/08/01 16:41:49;;;;;;;;;1.25;0.50;;;;;23.42;41.62;101019.78;4912339;28;45915;-76
2021/08/01 16:44:17;;;;;;;;;1.00;1.00;;;;;23.43;41.74;101014.28;4928358;28;45485;-76
2021/08/01 16:46:57;;;;;;;;;1.75;0.00;;;;;23.42;41.71;101022.44;4941387;28;45476;-76
2021/08/01 16:49:43;;;;;;;;;1.00;1.00;;;;;23.42;41.03;101009.91;4940024;28;46662;-77
2021/08/01 16:52:21;;;;;;;;;1.75;1.25;;;;;23.44;41.88;101007.94;4927456;28;45288;-76
2021/08/01 16:55:12;;;;;;;;;2.25;1.75;;;;;23.48;41.60;101013.91;4935170;28;45498;-76
2021/08/01 16:57:44;;;;;;;;;1.00;1.00;;;;;23.51;41.93;101007.47;4925449;28;45394;-76
2021/08/01 17:00:11;;;;;;;;;1.25;1.00;;;;;23.51;42.02;101010.16;4923172;28;45794;-76
2021/08/01 17:02:50;;;;;;;;;1.00;1.00;;;;;23.53;40.80;101010.88;4934884;28;45368;-75
2021/08/01 17:05:41;;;;;;;;;0.00;0.00;;;;;23.50;40.89;101017.34;4907901;28;45520;-76
2021/08/01 17:08:14;;;;;;;;;1.00;1.00;;;;;23.48;41.56;101016.59;4933398;28;45612;-76
2021/08/01 17:11:04;;;;;;;;;0.00;0.00;;;;;23.43;40.61;101018.81;4940294;28;45469;-76
2021/08/01 17:13:29;;;;;;;;;2.25;2.00;;;;;23.41;40.26;101023.44;4926901;28;45368;-75
2021/08/01 17:15:55;;;;;;;;;3.25;1.25;;;;;23.36;40.81;101019.28;4921927;28;45248;-75
2021/08/01 17:18:20;;;;;;;;;3.25;3.25;;;;;23.31;40.53;101026.88;4918232;28;45223;-75
2021/08/01 17:20:46;;;;;;;;;0.75;0.75;;;;;23.26;39.92;101034.47;4933139;28;45212;-76
2021/08/01 17:23:13;;;;;;;;;2.00;2.00;;;;;23.21;40.30;101036.69;4925019;28;45675;-76
2021/08/01 17:25:39;;;;;;;;;0.75;0.75;;;;;23.14;40.83;101031.81;4912865;28;45236;-76
2021/08/01 17:28:09;;;;;;;;;1.25;1.25;;;;;23.11;40.89;101034.75;4942301;28;45497;-76
2021/08/01 17:30:47;;;;;;;;;5.00;4.00;;;;;23.11;41.28;101028.56;4924927;28;46648;-76
2021/08/01 17:33:14;;;;;;;;;2.00;2.00;;;;;23.09;41.15;101033.19;4928734;28;45283;-76
2021/08/01 17:35:44;;;;;;;;;1.00;1.00;;;;;23.08;40.60;101039.50;4936262;28;45354;-76
2021/08/01 17:38:14;;;;;;;;;0.00;0.00;;;;;23.08;41.14;101036.84;4942555;28;45579;-76
2021/08/01 17:40:39;;;;;;;;;2.00;1.00;;;;;23.07;41.04;101043.16;4924680;28;45420;-75
2021/08/01 17:43:08;;;;;;;;;0.50;0.50;;;;;23.10;41.62;101045.59;4937453;28;45375;-76
2021/08/01 17:45:33;;;;;;;;;3.25;2.25;;;;;23.08;41.04;101042.19;4925517;28;45316;-76
2021/08/01 17:47:59;;;;;;;;;2.00;2.00;;;;;23.04;41.08;101049.63;4926144;28;45541;-75
2021/08/01 17:50:24;;;;;;;;;4.00;2.75;;;;;23.01;41.39;101049.91;4926102;28;46480;-75
2021/08/01 17:52:50;;;;;;;;;1.25;1.25;;;;;22.96;41.40;101052.94;4924722;28;45291;-75
2021/08/01 17:55:17;;;;;;;;;1.50;1.50;;;;;22.89;41.38;101052.56;4925163;28;45343;-75
2021/08/01 17:57:44;;;;;;;;;2.75;2.00;;;;;22.87;41.63;101059.03;4931002;28;45278;-75
2021/08/01 18:00:16;;;;;;;;;1.00;1.00;;;;;22.87;41.60;101065.25;4923820;28;45397;-75
2021/08/01 18:02:42;;;;;;;;;0.75;0.75;;;;;22.83;41.97;101061.13;4925314;28;45781;-75
2021/08/01 18:05:07;;;;;;;;;2.00;1.00;;;;;22.78;41.72;101066.84;4924670;28;45402;-75
2021/08/01 18:07:44;;;;;;;;;1.75;0.50;;;;;22.73;41.06;101065.50;4916304;28;47378;-76
2021/08/01 18:10:14;;;;;;;;;2.00;2.00;;;;;22.68;42.19;101066.72;4940057;28;46342;-76
2021/08/01 18:12:48;;;;;;;;;1.00;1.00;;;;;22.67;41.98;101073.03;4932240;28;45337;-77
2021/08/01 18:15:15;;;;;;;;;3.25;2.25;;;;;22.63;42.16;101076.09;4920952;28;45298;-76
2021/08/01 18:17:44;;;;;;;;;2.00;2.00;;;;;22.60;42.91;101090.56;4930440;28;45583;-75
2021/08/01 18:20:10;;;;;;;;;2.25;2.25;;;;;22.53;43.06;101089.34;4924695;28;45597;-76
2021/08/01 18:22:38;;;;;;;;;1.00;1.00;;;;;22.49;43.26;101096.78;4943770;28;45425;-76
2021/08/01 18:25:06;;;;;;;;;1.75;1.00;;;;;22.43;44.06;101098.13;4920020;28;45522;-76
2021/08/01 18:27:31;;;;;;;;;2.00;2.00;;;;;22.37;44.22;101096.75;4908524;28;46613;-76
2021/08/01 18:29:58;;;;;;;;;4.00;2.00;;;;;22.27;44.27;101106.50;4926465;28;45632;-76
2021/08/01 18:32:26;;;;;;;;;3.00;2.00;;;;;22.16;44.55;101104.63;4923851;28;45204;-75
2021/08/01 18:34:53;;;;;;;;;1.00;1.00;;;;;22.06;45.74;101104.50;4924908;28;45307;-76
2021/08/01 18:37:23;;;;;;;;;1.00;1.00;;;;;22.00;47.83;101115.69;4924724;28;45324;-76
2021/08/01 18:39:49;;;;;;;;;1.75;1.75;;;;;21.90;48.93;101118.19;4937360;28;45505;-76
2021/08/01 18:42:17;;;;;;;;;2.75;2.00;;;;;21.80;48.91;101121.50;4934862;28;45315;-76
2021/08/01 18:44:50;;;;;;;;;3.00;2.75;;;;;21.73;48.65;101114.09;4915934;28;45363;-76
2021/08/01 18:47:19;;;;;;;;;1.00;1.00;;;;;21.70;49.54;101118.69;4939084;28;45489;-76
2021/08/01 18:49:47;;;;;;;;;4.00;2.00;;;;;21.65;50.77;101123.53;4943066;28;45417;-75
2021/08/01 18:52:19;;;;;;;;;4.50;2.00;;;;;21.62;49.74;101125.56;4926001;28;45305;-75
2021/08/01 18:54:53;;;;;;;;;3.00;3.00;;;;;21.62;49.99;101123.75;4928825;28;45425;-75
2021/08/01 18:57:19;;;;;;;;;4.75;4.00;;;;;21.62;50.79;101128.25;4923555;28;45494;-75
2021/08/01 18:59:47;;;;;;;;;5.00;5.00;;;;;21.58;50.88;101130.31;4926553;28;45452;-75
2021/08/01 19:02:21;;;;;;;;;3.00;3.00;;;;;21.57;50.56;101137.47;4925024;28;45263;-75
2021/08/01 19:04:52;;;;;;;;;4.00;3.00;;;;;21.53;50.62;101141.31;4929100;28;45300;-76
2021/08/01 19:07:22;;;;;;;;;4.00;3.50;;;;;21.50;50.93;101138.03;4925065;28;45388;-75
2021/08/01 19:09:50;;;;;;;;;3.75;3.00;;;;;21.50;50.16;101141.56;4934659;28;46791;-76
2021/08/01 19:12:17;;;;;;;;;2.00;2.00;;;;;21.51;50.07;101153.13;4935249;28;46742;-76
2021/08/01 19:14:42;;;;;;;;;3.00;3.00;;;;;21.48;50.52;101159.56;4923522;28;45561;-76
2021/08/01 19:17:17;;;;;;;;;4.25;3.25;;;;;21.46;50.72;101154.31;4928558;28;45308;-75
2021/08/01 19:19:49;;;;;;;;;3.00;3.00;;;;;21.46;50.54;101151.63;4923343;28;45417;-76
2021/08/01 19:22:21;;;;;;;;;2.50;2.50;;;;;21.46;50.80;101156.13;4923698;28;45282;-76
2021/08/01 19:24:59;;;;;;;;;2.00;2.00;;;;;21.46;50.05;101153.44;4923596;28;45287;-76
2021/08/01 19:27:26;;;;;;;;;2.25;2.00;;;;;21.44;50.63;101161.59;4929511;28;45363;-76
2021/08/01 19:29:55;;;;;;;;;3.50;2.00;;;;;21.44;50.86;101164.25;4934685;28;45919;-75
2021/08/01 19:32:23;;;;;;;;;2.50;2.50;;;;;21.43;50.28;101159.03;4936236;28;45528;-76
2021/08/01 19:34:53;;;;;;;;;2.50;2.50;;;;;21.40;50.77;101162.78;4930936;28;45267;-75